createdAt,value
2022-07-30T00:01:34.486Z,7.93
2022-07-30T00:04:03.555Z,8.63
2022-07-30T00:06:30.632Z,7.50
2022-07-30T00:08:57.540Z,7.07
2022-07-30T00:11:27.826Z,7.45
2022-07-30T00:13:55.910Z,7.78
2022-07-30T00:16:23.086Z,7.45
2022-07-30T00:18:49.963Z,8.05
2022-07-30T00:21:20.213Z,7.38
2022-07-30T00:24:02.629Z,7.65
2022-07-30T00:26:29.837Z,7.53
2022-07-30T00:28:56.655Z,8.05
2022-07-30T00:31:23.595Z,8.25
2022-07-30T00:33:50.432Z,8.95
2022-07-30T00:36:17.506Z,8.35
2022-07-30T00:38:45.589Z,8.68
2022-07-30T00:41:12.642Z,8.68
2022-07-30T00:43:39.736Z,9.07
2022-07-30T00:46:06.739Z,9.27
2022-07-30T00:48:33.659Z,8.88
2022-07-30T00:51:00.486Z,9.05
2022-07-30T00:53:27.336Z,9.85
2022-07-30T00:55:54.191Z,9.07
2022-07-30T00:58:21.029Z,9.20
2022-07-30T01:00:48.936Z,8.55
2022-07-30T01:03:15.883Z,8.82
2022-07-30T01:05:42.733Z,10.00
2022-07-30T01:08:09.559Z,9.63
2022-07-30T01:10:36.484Z,9.50
2022-07-30T01:13:04.910Z,11.15
2022-07-30T01:15:32.703Z,9.90
2022-07-30T01:18:03.281Z,10.80
2022-07-30T01:20:51.683Z,10.65
2022-07-30T01:23:29.076Z,9.40
2022-07-30T01:26:10.898Z,9.45
2022-07-30T01:28:42.263Z,9.93
2022-07-30T01:31:10.813Z,9.48
2022-07-30T01:33:42.837Z,10.82
2022-07-30T01:36:14.171Z,11.07
2022-07-30T01:38:44.932Z,10.80
2022-07-30T01:41:15.181Z,10.32
2022-07-30T01:43:43.209Z,10.68
2022-07-30T01:46:12.026Z,10.75
2022-07-30T01:48:41.223Z,10.87
2022-07-30T01:51:12.507Z,11.13
2022-07-30T01:53:44.393Z,11.10
2022-07-30T01:56:16.803Z,11.73
2022-07-30T01:58:46.644Z,12.32
2022-07-30T02:01:19.771Z,11.65
2022-07-30T02:03:46.942Z,11.40
2022-07-30T02:06:21.034Z,11.90
2022-07-30T02:09:01.688Z,12.63
2022-07-30T02:12:02.994Z,13.98
2022-07-30T02:14:41.194Z,12.13
2022-07-30T02:17:18.705Z,12.33
2022-07-30T02:19:53.022Z,11.88
2022-07-30T02:22:23.414Z,12.10
2022-07-30T02:24:52.154Z,12.23
2022-07-30T02:27:27.327Z,12.93
2022-07-30T02:29:58.395Z,12.13
2022-07-30T02:32:27.805Z,13.27
2022-07-30T02:35:05.381Z,12.82
2022-07-30T02:37:42.862Z,11.95
2022-07-30T02:40:15.860Z,12.35
2022-07-30T02:42:45.703Z,12.93
2022-07-30T02:45:20.620Z,14.02
2022-07-30T02:47:51.436Z,13.18
2022-07-30T02:50:19.899Z,12.30
2022-07-30T02:52:48.433Z,13.20
2022-07-30T02:55:16.743Z,13.18
2022-07-30T02:57:45.150Z,14.00
2022-07-30T03:00:12.679Z,14.18
2022-07-30T03:02:43.619Z,14.32
2022-07-30T03:05:13.712Z,14.02
2022-07-30T03:07:42.290Z,14.55
2022-07-30T03:10:09.640Z,14.53
2022-07-30T03:12:37.946Z,14.75
2022-07-30T03:15:05.317Z,15.15
2022-07-30T03:17:38.138Z,14.10
2022-07-30T03:20:09.365Z,15.63
2022-07-30T03:22:40.306Z,14.55
2022-07-30T03:25:08.682Z,14.68
2022-07-30T03:27:39.726Z,14.70
2022-07-30T03:30:08.207Z,15.30
2022-07-30T03:32:36.941Z,14.57
2022-07-30T03:35:08.742Z,14.95
2022-07-30T03:37:46.231Z,15.20
2022-07-30T03:40:15.188Z,15.43
2022-07-30T03:42:43.171Z,14.05
2022-07-30T03:45:10.883Z,15.70
2022-07-30T03:47:40.304Z,14.60
2022-07-30T03:50:07.896Z,15.60
2022-07-30T03:52:41.885Z,15.13
2022-07-30T03:55:12.831Z,16.50
2022-07-30T03:57:45.792Z,16.50
2022-07-30T04:00:14.761Z,16.65
2022-07-30T04:02:47.597Z,16.20
2022-07-30T04:05:27.144Z,16.38
2022-07-30T04:08:08.731Z,15.23
2022-07-30T04:10:35.979Z,14.68
2022-07-30T04:13:23.617Z,14.20
2022-07-30T04:16:37.886Z,13.60
2022-07-30T04:18:53.369Z,12.15
2022-07-30T04:21:23.725Z,13.07
2022-07-30T04:24:03.959Z,12.60
2022-07-30T04:26:34.445Z,12.77
2022-07-30T04:29:02.498Z,11.82
2022-07-30T04:31:29.744Z,12.02
2022-07-30T04:34:04.770Z,11.90
2022-07-30T04:36:40.213Z,12.27
2022-07-30T04:39:07.613Z,11.60
2022-07-30T04:41:48.704Z,11.68
2022-07-30T04:44:36.593Z,11.95
2022-07-30T04:47:23.877Z,11.77
2022-07-30T04:50:10.068Z,10.88
2022-07-30T04:52:37.696Z,11.40
2022-07-30T04:55:08.754Z,11.98
2022-07-30T04:57:40.263Z,11.50
2022-07-30T05:00:09.028Z,11.52
2022-07-30T05:02:41.232Z,11.73
2022-07-30T05:05:10.806Z,11.38
2022-07-30T05:07:39.419Z,11.40
2022-07-30T05:10:09.018Z,12.75
2022-07-30T05:12:40.050Z,12.77
2022-07-30T05:15:09.273Z,13.52
2022-07-30T05:17:37.120Z,12.55
2022-07-30T05:20:06.935Z,14.75
2022-07-30T05:22:52.369Z,14.05
2022-07-30T05:25:21.506Z,13.27
2022-07-30T05:27:51.327Z,12.93
2022-07-30T05:30:18.186Z,15.85
2022-07-30T05:32:49.495Z,14.40
2022-07-30T05:35:17.065Z,14.18
2022-07-30T05:37:43.985Z,14.35
2022-07-30T05:40:12.144Z,13.90
2022-07-30T05:43:11.021Z,14.48
2022-07-30T05:45:38.341Z,14.88
2022-07-30T05:48:05.508Z,13.45
2022-07-30T05:50:32.380Z,11.75
2022-07-30T05:52:59.157Z,12.45
2022-07-30T05:55:44.642Z,11.43
2022-07-30T05:58:29.995Z,11.80
2022-07-30T06:00:57.410Z,11.20
2022-07-30T06:03:28.300Z,11.35
2022-07-30T06:06:22.703Z,10.88
2022-07-30T06:08:50.581Z,10.50
2022-07-30T06:11:17.811Z,10.13
2022-07-30T06:13:44.745Z,9.48
2022-07-30T06:16:11.954Z,9.80
2022-07-30T06:18:39.035Z,8.73
2022-07-30T06:21:14.482Z,6.03
2022-07-30T06:24:10.410Z,5.95
2022-07-30T06:26:46.835Z,5.35
2022-07-30T06:29:14.466Z,4.10
2022-07-30T06:31:41.564Z,3.75
2022-07-30T06:34:12.182Z,3.55
2022-07-30T06:36:42.172Z,3.50
2022-07-30T06:39:14.931Z,3.50
2022-07-30T06:42:20.708Z,3.03
2022-07-30T06:45:16.711Z,3.22
2022-07-30T06:48:22.135Z,3.03
2022-07-30T06:50:49.047Z,2.65
2022-07-30T06:53:16.212Z,3.05
2022-07-30T06:56:18.227Z,2.97
2022-07-30T06:58:53.005Z,2.50
2022-07-30T07:01:38.407Z,2.08
2022-07-30T07:04:05.478Z,2.60
2022-07-30T07:06:33.068Z,2.47
2022-07-30T07:09:00.461Z,2.78
2022-07-30T07:11:37.408Z,2.40
2022-07-30T07:14:08.866Z,2.03
2022-07-30T07:16:36.606Z,2.08
2022-07-30T07:19:59.810Z,2.20
2022-07-30T07:22:11.182Z,2.15
2022-07-30T07:24:38.174Z,1.90
2022-07-30T07:27:15.611Z,2.28
2022-07-30T07:30:01.862Z,1.98
2022-07-30T07:32:32.507Z,3.15
2022-07-30T07:34:59.397Z,2.15
2022-07-30T07:37:26.987Z,2.30
2022-07-30T07:39:53.998Z,2.30
2022-07-30T07:42:21.078Z,2.10
2022-07-30T07:44:49.391Z,2.00
2022-07-30T07:47:17.245Z,2.05
2022-07-30T07:49:57.672Z,1.80
2022-07-30T07:52:24.585Z,1.95
2022-07-30T07:54:52.219Z,2.13
2022-07-30T07:57:20.287Z,1.80
2022-07-30T07:59:47.814Z,2.50
2022-07-30T08:02:24.147Z,1.70
2022-07-30T08:05:06.438Z,2.10
2022-07-30T08:07:51.119Z,2.30
2022-07-30T08:10:27.028Z,2.10
2022-07-30T08:13:52.349Z,2.15
2022-07-30T08:16:29.333Z,1.60
2022-07-30T08:19:14.973Z,1.90
2022-07-30T08:21:48.247Z,1.63
2022-07-30T08:24:17.479Z,1.90
2022-07-30T08:26:44.346Z,1.73
2022-07-30T08:29:16.790Z,2.00
2022-07-30T08:31:44.508Z,1.77
2022-07-30T08:34:11.464Z,1.70
2022-07-30T08:36:39.699Z,1.58
2022-07-30T08:39:06.580Z,1.45
2022-07-30T08:41:33.714Z,1.50
2022-07-30T08:44:01.527Z,1.50
2022-07-30T08:46:31.901Z,1.83
2022-07-30T08:49:11.036Z,1.42
2022-07-30T08:51:40.047Z,1.90
2022-07-30T08:54:22.940Z,3.22
2022-07-30T08:56:50.514Z,1.38
2022-07-30T08:59:18.248Z,1.30
2022-07-30T09:01:45.168Z,1.88
2022-07-30T09:04:11.999Z,1.65
2022-07-30T09:06:40.849Z,1.25
2022-07-30T09:09:07.920Z,1.20
2022-07-30T09:11:38.033Z,1.40
2022-07-30T09:14:10.151Z,1.02
2022-07-30T09:16:37.056Z,1.60
2022-07-30T09:19:19.888Z,1.60
2022-07-30T09:22:01.190Z,2.05
2022-07-30T09:24:50.933Z,1.40
2022-07-30T09:27:52.937Z,1.30
2022-07-30T09:30:48.478Z,1.27
2022-07-30T09:33:40.750Z,1.20
2022-07-30T09:36:39.497Z,1.60
2022-07-30T09:39:30.837Z,2.00
2022-07-30T09:42:29.450Z,1.33
2022-07-30T09:45:13.028Z,1.08
2022-07-30T09:47:45.015Z,1.17
2022-07-30T09:50:17.764Z,1.05
2022-07-30T09:53:06.476Z,1.40
2022-07-30T09:55:36.411Z,1.40
2022-07-30T09:58:09.816Z,1.20
2022-07-30T10:00:42.289Z,1.38
2022-07-30T10:03:38.480Z,1.35
2022-07-30T10:06:38.164Z,1.10
2022-07-30T10:09:33.499Z,1.48
2022-07-30T10:12:10.498Z,1.45
2022-07-30T10:14:43.954Z,1.50
2022-07-30T10:17:15.091Z,1.98
2022-07-30T10:19:53.206Z,1.38
2022-07-30T10:22:40.419Z,1.40
2022-07-30T10:25:30.610Z,1.17
2022-07-30T10:28:09.966Z,1.27
2022-07-30T10:30:37.128Z,1.25
2022-07-30T10:33:08.094Z,1.20
2022-07-30T10:35:38.396Z,1.30
2022-07-30T10:38:13.442Z,1.25
2022-07-30T10:40:46.476Z,1.20
2022-07-30T10:43:40.092Z,1.30
2022-07-30T10:46:27.081Z,1.38
2022-07-30T10:48:55.620Z,1.50
2022-07-30T10:51:43.458Z,1.27
2022-07-30T10:54:39.360Z,1.77
2022-07-30T10:57:10.704Z,1.40
2022-07-30T10:59:58.629Z,1.30
2022-07-30T11:02:28.578Z,1.40
2022-07-30T11:05:17.951Z,1.25
2022-07-30T11:07:47.400Z,1.30
2022-07-30T11:10:50.004Z,1.55
2022-07-30T11:13:16.864Z,1.63
2022-07-30T11:15:59.681Z,1.45
2022-07-30T11:18:28.788Z,1.25
2022-07-30T11:21:21.389Z,1.73
2022-07-30T11:23:49.459Z,1.20
2022-07-30T11:26:41.187Z,1.20
2022-07-30T11:29:33.133Z,1.73
2022-07-30T11:32:26.490Z,1.55
2022-07-30T11:35:11.805Z,1.80
2022-07-30T11:38:09.446Z,1.48
2022-07-30T11:40:42.857Z,1.40
2022-07-30T11:43:35.826Z,1.55
2022-07-30T11:46:17.916Z,1.60
2022-07-30T11:49:08.228Z,1.42
2022-07-30T11:51:43.071Z,1.45
2022-07-30T11:54:10.995Z,1.70
2022-07-30T11:56:54.564Z,1.55
2022-07-30T11:59:21.611Z,1.98
2022-07-30T12:02:01.683Z,1.92
2022-07-30T12:04:29.660Z,1.80
2022-07-30T12:06:56.530Z,1.83
2022-07-30T12:09:27.535Z,1.70
2022-07-30T12:11:55.700Z,1.60
2022-07-30T12:14:22.582Z,1.67
2022-07-30T12:16:51.487Z,1.60
2022-07-30T12:21:49.420Z,1.40
2022-07-30T12:24:25.216Z,1.80
2022-07-30T12:26:52.302Z,1.60
2022-07-30T12:29:21.601Z,1.50
2022-07-30T12:31:48.527Z,1.80
2022-07-30T12:34:24.089Z,1.85
2022-07-30T12:36:51.636Z,1.50
2022-07-30T12:39:21.331Z,1.90
2022-07-30T12:41:49.913Z,1.40
2022-07-30T12:44:44.653Z,1.40
2022-07-30T12:47:31.065Z,1.45
2022-07-30T12:50:01.333Z,1.33
2022-07-30T12:52:34.654Z,1.40
2022-07-30T12:55:10.208Z,1.40
2022-07-30T12:57:58.169Z,1.50
2022-07-30T13:00:31.496Z,1.73
2022-07-30T13:02:58.991Z,1.50
2022-07-30T13:05:47.962Z,1.80
2022-07-30T13:08:14.909Z,1.45
2022-07-30T13:11:01.829Z,1.58
2022-07-30T13:13:29.697Z,1.58
2022-07-30T13:16:05.973Z,1.77
2022-07-30T13:18:34.278Z,1.40
2022-07-30T13:21:02.553Z,1.98
2022-07-30T13:23:32.478Z,1.70
2022-07-30T13:25:59.313Z,1.88
2022-07-30T13:28:26.889Z,2.08
2022-07-30T13:30:53.833Z,1.80
2022-07-30T13:33:20.626Z,2.50
2022-07-30T13:35:47.566Z,1.92
2022-07-30T13:38:15.599Z,1.55
2022-07-30T13:40:42.704Z,1.57
2022-07-30T13:43:09.747Z,1.58
2022-07-30T13:45:37.059Z,1.52
2022-07-30T13:48:04.219Z,1.60
2022-07-30T13:50:31.186Z,1.65
2022-07-30T13:53:02.064Z,2.00
2022-07-30T13:55:29.874Z,2.90
2022-07-30T13:57:56.985Z,2.13
2022-07-30T14:00:24.671Z,1.60
2022-07-30T14:02:51.827Z,1.88
2022-07-30T14:05:18.736Z,1.90
2022-07-30T14:07:45.575Z,1.42
2022-07-30T14:10:12.414Z,1.50
2022-07-30T14:12:39.999Z,1.50
2022-07-30T14:15:09.302Z,1.92
2022-07-30T14:17:36.463Z,2.35
2022-07-30T14:20:03.980Z,1.73
2022-07-30T14:22:30.845Z,1.90
2022-07-30T14:24:57.680Z,1.67
2022-07-30T14:27:24.606Z,1.90
2022-07-30T14:29:51.514Z,2.00
2022-07-30T14:32:18.364Z,1.90
2022-07-30T14:34:49.572Z,1.50
2022-07-30T14:37:16.734Z,1.73
2022-07-30T14:39:43.712Z,1.77
2022-07-30T14:42:11.252Z,2.03
2022-07-30T14:44:38.143Z,1.60
2022-07-30T14:47:05.415Z,1.95
2022-07-30T14:49:32.482Z,1.95
2022-07-30T14:51:59.481Z,1.90
2022-07-30T14:54:27.866Z,1.75
2022-07-30T14:56:58.197Z,1.80
2022-07-30T14:59:27.556Z,1.92
2022-07-30T15:01:55.449Z,2.20
2022-07-30T15:04:23.102Z,1.70
2022-07-30T15:06:50.510Z,1.90
2022-07-30T15:09:19.710Z,1.70
2022-07-30T15:14:33.400Z,2.08
2022-07-30T15:17:04.272Z,1.65
2022-07-30T15:19:32.071Z,1.67
2022-07-30T15:22:02.001Z,1.95
2022-07-30T15:24:30.056Z,1.75
2022-07-30T15:26:56.966Z,1.73
2022-07-30T15:29:24.288Z,1.85
2022-07-30T15:31:51.697Z,2.00
2022-07-30T15:34:18.923Z,1.70
2022-07-30T15:36:45.817Z,1.92
2022-07-30T15:39:13.424Z,2.00
2022-07-30T15:41:42.607Z,1.75
2022-07-30T15:44:09.481Z,2.40
2022-07-30T15:46:36.379Z,1.88
2022-07-30T15:49:03.322Z,2.92
2022-07-30T15:51:32.087Z,2.00
2022-07-30T15:53:59.624Z,2.28
2022-07-30T15:56:28.199Z,1.85
2022-07-30T15:58:55.520Z,2.70
2022-07-30T16:01:22.958Z,2.08
2022-07-30T16:03:49.897Z,2.05
2022-07-30T16:06:16.746Z,1.80
2022-07-30T16:08:43.614Z,2.47
2022-07-30T16:11:11.162Z,2.00
2022-07-30T16:13:38.237Z,1.73
2022-07-30T16:16:05.326Z,2.10
2022-07-30T16:18:32.384Z,2.05
2022-07-30T16:21:01.166Z,1.88
2022-07-30T16:23:28.458Z,2.30
2022-07-30T16:26:03.787Z,2.13
2022-07-30T16:28:30.706Z,1.80
2022-07-30T16:30:57.625Z,2.30
2022-07-30T16:33:24.524Z,2.10
2022-07-30T16:35:51.504Z,1.90
2022-07-30T16:38:19.664Z,1.92
2022-07-30T16:40:46.523Z,1.90
2022-07-30T16:43:15.525Z,2.22
2022-07-30T16:45:43.834Z,1.85
2022-07-30T16:48:11.939Z,1.88
2022-07-30T16:50:40.658Z,2.10
2022-07-30T16:53:13.337Z,2.30
2022-07-30T16:55:41.617Z,2.40
2022-07-30T16:58:08.738Z,2.55
2022-07-30T17:00:35.628Z,2.35
2022-07-30T17:03:02.780Z,2.60
2022-07-30T17:05:29.861Z,2.30
2022-07-30T17:07:56.801Z,2.42
2022-07-30T17:10:26.593Z,2.50
2022-07-30T17:12:54.246Z,2.78
2022-07-30T17:15:32.178Z,3.35
2022-07-30T17:18:02.937Z,3.47
2022-07-30T17:20:31.075Z,3.40
2022-07-30T17:22:58.122Z,2.73
2022-07-30T17:25:27.430Z,2.75
2022-07-30T17:27:59.038Z,3.22
2022-07-30T17:30:29.858Z,2.78
2022-07-30T17:32:56.771Z,2.83
2022-07-30T17:35:24.792Z,3.67
2022-07-30T17:37:52.103Z,2.60
2022-07-30T17:40:19.452Z,2.47
2022-07-30T17:43:02.948Z,2.45
2022-07-30T17:45:34.593Z,2.63
2022-07-30T17:48:02.172Z,2.75
2022-07-30T17:50:30.116Z,2.53
2022-07-30T17:52:56.968Z,2.90
2022-07-30T17:55:24.308Z,2.22
2022-07-30T17:57:51.134Z,2.50
2022-07-30T18:00:18.035Z,2.17
2022-07-30T18:02:44.972Z,2.67
2022-07-30T18:05:15.334Z,2.70
2022-07-30T18:07:43.478Z,2.88
2022-07-30T18:10:12.226Z,2.40
2022-07-30T18:12:39.497Z,3.88
2022-07-30T18:15:16.779Z,2.83
2022-07-30T18:17:43.646Z,3.30
2022-07-30T18:20:11.102Z,2.50
2022-07-30T18:22:38.213Z,2.55
2022-07-30T18:25:08.203Z,3.42
2022-07-30T18:27:45.574Z,3.50
2022-07-30T18:30:12.711Z,2.88
2022-07-30T18:32:40.617Z,2.30
2022-07-30T18:35:12.160Z,2.83
2022-07-30T18:37:42.045Z,2.60
2022-07-30T18:40:10.407Z,2.40
2022-07-30T18:42:37.390Z,2.20
2022-07-30T18:45:05.076Z,2.50
2022-07-30T18:47:31.899Z,2.33
2022-07-30T18:49:58.785Z,2.40
2022-07-30T18:52:25.850Z,2.60
2022-07-30T18:54:52.719Z,3.20
2022-07-30T18:57:19.886Z,2.30
2022-07-30T18:59:46.739Z,2.60
2022-07-30T19:02:13.514Z,2.40
2022-07-30T19:04:40.361Z,2.50
2022-07-30T19:07:07.285Z,2.78
2022-07-30T19:09:34.534Z,2.35
2022-07-30T19:12:01.643Z,2.90
2022-07-30T19:14:28.794Z,2.88
2022-07-30T19:16:59.366Z,2.35
2022-07-30T19:19:26.998Z,2.58
2022-07-30T19:21:53.963Z,2.83
2022-07-30T19:24:21.027Z,2.50
2022-07-30T19:26:47.867Z,3.40
2022-07-30T19:29:14.688Z,2.88
2022-07-30T19:31:41.676Z,3.25
2022-07-30T19:34:10.722Z,3.17
2022-07-30T19:36:38.497Z,3.90
2022-07-30T19:39:06.960Z,3.03
2022-07-30T19:41:40.458Z,3.13
2022-07-30T19:44:09.147Z,3.35
2022-07-30T19:46:36.650Z,3.08
2022-07-30T19:49:03.982Z,3.67
2022-07-30T19:52:09.808Z,2.90
2022-07-30T19:54:20.909Z,2.63
2022-07-30T19:56:48.670Z,2.92
2022-07-30T19:59:15.865Z,2.90
2022-07-30T20:01:43.699Z,3.00
2022-07-30T20:04:11.237Z,3.45
2022-07-30T20:06:39.952Z,3.60
2022-07-30T20:09:14.995Z,3.17
2022-07-30T20:11:43.573Z,3.08
2022-07-30T20:14:10.414Z,3.45
2022-07-30T20:16:37.475Z,3.10
2022-07-30T20:19:05.505Z,3.33
2022-07-30T20:21:56.531Z,3.22
2022-07-30T20:24:21.047Z,2.70
2022-07-30T20:26:48.078Z,3.63
2022-07-30T20:29:19.264Z,3.13
2022-07-30T20:31:46.621Z,3.60
2022-07-30T20:34:17.995Z,3.63
2022-07-30T20:36:45.066Z,2.87
2022-07-30T20:39:13.415Z,3.10
2022-07-30T20:41:45.072Z,2.85
2022-07-30T20:44:14.943Z,3.00
2022-07-30T20:46:52.743Z,2.67
2022-07-30T20:52:02.625Z,3.25
2022-07-30T20:54:29.989Z,2.80
2022-07-30T20:56:57.510Z,3.03
2022-07-30T20:59:25.160Z,2.55
2022-07-30T21:01:51.953Z,3.20
2022-07-30T21:04:23.978Z,2.95
2022-07-30T21:06:52.939Z,3.17
2022-07-30T21:09:20.224Z,3.17
2022-07-30T21:12:00.764Z,3.15
2022-07-30T21:14:27.710Z,3.47
2022-07-30T21:16:56.272Z,3.30
2022-07-30T21:19:23.367Z,3.10
2022-07-30T21:21:50.654Z,4.10
2022-07-30T21:24:19.466Z,3.67
2022-07-30T21:26:48.861Z,4.20
2022-07-30T21:29:18.384Z,4.78
2022-07-30T21:32:01.864Z,4.15
2022-07-30T21:34:35.899Z,4.72
2022-07-30T21:37:07.643Z,4.85
2022-07-30T21:39:39.928Z,5.28
2022-07-30T21:42:08.714Z,3.95
2022-07-30T21:44:36.325Z,4.57
2022-07-30T21:47:05.567Z,3.97
2022-07-30T21:49:37.295Z,3.60
2022-07-30T21:52:04.981Z,3.63
2022-07-30T21:57:23.102Z,5.45
2022-07-30T21:59:54.046Z,5.93
2022-07-30T22:02:23.048Z,6.10
2022-07-30T22:04:51.359Z,6.35
2022-07-30T22:07:18.241Z,9.13
2022-07-30T22:09:45.460Z,7.38
2022-07-30T22:12:18.240Z,6.90
2022-07-30T22:14:48.745Z,7.90
2022-07-30T22:17:23.897Z,7.70
2022-07-30T22:20:04.548Z,6.97
2022-07-30T22:22:37.579Z,7.20
2022-07-30T22:25:09.423Z,7.13
2022-07-30T22:27:56.286Z,7.03
2022-07-30T22:30:26.579Z,6.75
2022-07-30T22:33:13.460Z,7.05
2022-07-30T22:35:46.587Z,7.80
2022-07-30T22:38:14.668Z,6.57
2022-07-30T22:40:42.791Z,8.57
2022-07-30T22:43:12.604Z,7.28
2022-07-30T22:45:48.628Z,8.02
2022-07-30T22:48:17.184Z,8.25
2022-07-30T22:50:43.992Z,8.07
2022-07-30T22:55:58.699Z,8.15
2022-07-30T23:01:12.620Z,8.10
2022-07-30T23:03:39.459Z,7.55
2022-07-30T23:06:14.399Z,8.13
2022-07-30T23:08:41.740Z,8.50
2022-07-30T23:11:09.285Z,8.40
2022-07-30T23:12:27.818Z,3.72
2022-07-30T23:12:33.878Z,8.15
2022-07-30T23:12:34.170Z,8.10
2022-07-30T23:13:38.539Z,8.52
2022-07-30T23:18:35.120Z,8.77
2022-07-30T23:21:02.822Z,9.02
2022-07-30T23:23:33.922Z,10.02
2022-07-30T23:26:02.068Z,9.25
2022-07-30T23:28:28.922Z,10.00
2022-07-30T23:30:55.788Z,9.75
2022-07-30T23:33:22.662Z,10.27
2022-07-30T23:35:49.531Z,10.20
2022-07-30T23:38:16.643Z,9.52
2022-07-30T23:40:43.611Z,9.73
2022-07-30T23:43:10.392Z,11.88
2022-07-30T23:45:37.204Z,9.70
2022-07-30T23:48:04.211Z,8.60
2022-07-30T23:50:32.498Z,9.18
2022-07-30T23:53:00.413Z,8.77
2022-07-30T23:55:27.470Z,9.52
2022-07-30T23:57:54.369Z,9.35
